Time;durP1;ratioP1;P1;durP2;ratioP2;P2;SDS_P1;SDS_P2;PMS_P1;PMS_P2;Temp;Humidity;BMP_temperature;BMP_pressure;BME280_temperature;BME280_humidity;BME280_pressure;Samples;Min_cycle;Max_cycle;Signal;HPM_P1;HPM_P2
2022/10/23 00:01:34;;;;;;;21.02;14.50;;;7.90;99.90;;;;;;8347827;28;20489;-82
2022/10/23 00:05:39;;;;;;;20.75;12.05;;;7.80;99.90;;;;;;8320847;28;20031;-82
2022/10/23 00:09:39;;;;;;;13.38;7.90;;;7.60;99.90;;;;;;8319421;28;20048;-82
2022/10/23 00:13:40;;;;;;;15.75;10.68;;;7.40;99.90;;;;;;8334641;28;20017;-81
2022/10/23 00:17:41;;;;;;;14.32;8.95;;;7.10;99.90;;;;;;8316502;28;20254;-81
2022/10/23 00:21:42;;;;;;;12.75;8.40;;;7.10;99.90;;;;;;8291147;28;20021;-81
2022/10/23 00:30:39;;;;;;;13.07;8.35;;;6.80;99.90;;;;;;8350074;28;20052;-82
2022/10/23 00:34:40;;;;;;;15.68;8.55;;;6.70;99.90;;;;;;8347936;28;20382;-82
2022/10/23 00:38:40;;;;;;;12.20;7.60;;;6.70;99.90;;;;;;8327791;28;20083;-83
2022/10/23 00:42:41;;;;;;;14.00;9.20;;;6.80;99.90;;;;;;8339698;28;20068;-82
2022/10/23 00:46:41;;;;;;;23.35;10.45;;;6.80;99.90;;;;;;8355756;23;20035;-83
2022/10/23 00:50:43;;;;;;;18.40;10.05;;;6.90;99.90;;;;;;8307254;28;20112;-83
2022/10/23 00:54:44;;;;;;;14.82;9.55;;;6.80;99.90;;;;;;8331069;28;20021;-84
2022/10/23 00:58:45;;;;;;;16.20;8.10;;;6.70;99.90;;;;;;8313275;28;20028;-83
2022/10/23 01:02:45;;;;;;;16.60;8.10;;;6.60;99.90;;;;;;8327898;28;20044;-84
2022/10/23 01:07:11;;;;;;;18.77;10.60;;;6.50;99.90;;;;;;8310508;28;20025;-84
2022/10/23 01:11:25;;;;;;;19.35;11.82;;;6.70;99.90;;;;;;8313905;28;20030;-83
2022/10/23 01:15:31;;;;;;;14.95;9.63;;;6.60;99.90;;;;;;8328892;28;20160;-83
2022/10/23 01:20:04;;;;;;;17.92;11.50;;;6.60;99.90;;;;;;8313607;28;20033;-83
2022/10/23 01:24:36;;;;;;;20.67;11.50;;;6.60;99.90;;;;;;8311856;28;20500;-84
2022/10/23 01:29:03;;;;;;;21.27;11.60;;;6.60;99.90;;;;;;8305308;28;20286;-84
2022/10/23 01:33:19;;;;;;;15.98;10.32;;;6.60;99.90;;;;;;8317825;28;20029;-83
2022/10/23 01:37:26;;;;;;;17.20;10.63;;;6.50;99.90;;;;;;8324918;28;20389;-84
2022/10/23 01:41:36;;;;;;;16.45;10.52;;;6.50;99.90;;;;;;8311420;28;20021;-83
2022/10/23 01:45:41;;;;;;;16.80;9.98;;;6.70;99.90;;;;;;8305969;28;20018;-83
2022/10/23 01:53:55;;;;;;;;;;;6.70;99.90;;;;;;8563954;23;20101;-84
2022/10/23 01:57:56;;;;;;;15.48;9.68;;;6.60;99.90;;;;;;8212848;28;20274;-84
2022/10/23 02:01:59;;;;;;;15.68;10.20;;;6.50;99.90;;;;;;8211910;28;20023;-83
2022/10/23 02:06:00;;;;;;;18.23;9.18;;;6.40;99.90;;;;;;8422571;23;20041;-79
2022/10/23 02:10:06;;;;;;;12.05;8.85;;;6.30;99.90;;;;;;8340066;28;20103;-79
2022/10/23 02:14:10;;;;;;;13.93;9.13;;;6.20;99.90;;;;;;8330481;28;20063;-78
2022/10/23 02:18:47;;;;;;;13.75;9.32;;;6.20;99.90;;;;;;8312175;28;20092;-78
2022/10/23 02:23:03;;;;;;;17.23;9.65;;;6.20;99.90;;;;;;8298721;28;20014;-79
2022/10/23 02:27:11;;;;;;;17.20;9.55;;;6.20;99.90;;;;;;8315026;28;20080;-79
2022/10/23 02:31:16;;;;;;;17.88;9.88;;;6.20;99.90;;;;;;8317291;28;20029;-79
2022/10/23 02:35:20;;;;;;;19.90;10.15;;;6.10;99.90;;;;;;8317474;28;20033;-78
2022/10/23 02:39:25;;;;;;;16.45;10.48;;;6.00;99.90;;;;;;8304476;28;20041;-79
2022/10/23 02:43:35;;;;;;;21.63;11.88;;;6.00;99.90;;;;;;8299715;28;20018;-78
2022/10/23 02:48:11;;;;;;;18.77;12.13;;;6.20;99.90;;;;;;8307569;28;20068;-78
2022/10/23 02:52:27;;;;;;;19.90;13.20;;;6.40;99.90;;;;;;8300153;28;20021;-79
2022/10/23 02:56:44;;;;;;;19.10;13.23;;;6.60;99.90;;;;;;8308976;28;20021;-80
2022/10/23 03:00:51;;;;;;;15.98;11.63;;;6.70;99.90;;;;;;8315428;28;20041;-78
2022/10/23 03:04:54;;;;;;;17.92;12.05;;;7.10;99.90;;;;;;8325799;28;20509;-80
2022/10/23 03:09:02;;;;;;;16.27;10.68;;;7.10;99.90;;;;;;8314685;28;20060;-79
2022/10/23 03:13:03;;;;;;;17.05;9.00;;;7.00;99.90;;;;;;8310475;28;20041;-79
2022/10/23 03:17:04;;;;;;;12.95;8.50;;;7.10;99.90;;;;;;8325196;28;20026;-79
2022/10/23 03:21:05;;;;;;;12.15;7.38;;;7.00;99.90;;;;;;8308479;28;20485;-79
2022/10/23 03:25:06;;;;;;;12.90;7.32;;;7.00;99.90;;;;;;8307636;28;20108;-79
2022/10/23 03:29:07;;;;;;;11.65;7.38;;;6.90;99.90;;;;;;8300116;28;20021;-78
2022/10/23 03:33:07;;;;;;;14.45;7.45;;;6.90;99.90;;;;;;8309234;28;20060;-79
2022/10/23 03:37:08;;;;;;;7.45;6.03;;;7.00;99.90;;;;;;8308316;28;20022;-79
2022/10/23 03:41:09;;;;;;;9.82;6.43;;;7.40;99.90;;;;;;8308475;28;20028;-79
2022/10/23 03:45:09;;;;;;;11.95;7.43;;;7.30;99.90;;;;;;8333096;28;20025;-79
2022/10/23 03:49:10;;;;;;;9.75;7.03;;;7.20;99.90;;;;;;8312336;28;20049;-80
2022/10/23 03:53:10;;;;;;;12.30;6.57;;;7.40;99.90;;;;;;8314317;28;20034;-79
2022/10/23 03:57:11;;;;;;;9.20;6.35;;;7.50;99.90;;;;;;8308564;28;20473;-79
2022/10/23 04:01:12;;;;;;;12.52;5.78;;;7.50;99.90;;;;;;8303020;28;20049;-79
2022/10/23 04:05:12;;;;;;;8.95;5.13;;;7.50;99.90;;;;;;8310220;28;20601;-80
2022/10/23 04:09:13;;;;;;;8.98;5.35;;;7.30;99.90;;;;;;8308619;28;20067;-79
2022/10/23 04:13:14;;;;;;;10.07;6.07;;;6.90;99.90;;;;;;8315062;28;20481;-79
2022/10/23 04:17:14;;;;;;;8.80;5.43;;;6.70;99.90;;;;;;8326166;28;20028;-79
2022/10/23 04:21:15;;;;;;;6.50;5.25;;;6.60;99.90;;;;;;8312472;28;20045;-79
2022/10/23 04:25:16;;;;;;;8.48;5.13;;;6.70;99.90;;;;;;8313748;28;20017;-79
2022/10/23 04:29:16;;;;;;;8.93;5.57;;;6.50;99.90;;;;;;8316868;28;20025;-79
2022/10/23 04:33:17;;;;;;;16.20;5.53;;;6.30;99.90;;;;;;8335534;28;20555;-79
2022/10/23 04:37:18;;;;;;;7.05;5.55;;;6.10;99.90;;;;;;8316519;28;20087;-79
2022/10/23 04:41:19;;;;;;;7.65;6.07;;;6.00;99.90;;;;;;8319202;28;20105;-79
2022/10/23 04:45:19;;;;;;;9.10;6.40;;;6.00;99.90;;;;;;8314004;28;20048;-78
2022/10/23 04:49:20;;;;;;;8.18;6.88;;;6.10;99.90;;;;;;8309622;28;20485;-78
2022/10/23 04:53:20;;;;;;;13.70;7.15;;;6.00;99.90;;;;;;8316562;28;20072;-79
2022/10/23 04:57:21;;;;;;;12.50;8.30;;;6.00;99.90;;;;;;8323290;28;20025;-78
2022/10/23 05:01:21;;;;;;;14.98;8.80;;;6.00;99.90;;;;;;8305971;28;20101;-79
2022/10/23 05:05:22;;;;;;;13.23;7.90;;;5.90;99.90;;;;;;8330832;28;20033;-79
2022/10/23 05:09:22;;;;;;;12.32;8.57;;;6.00;99.90;;;;;;8316899;28;20043;-79
2022/10/23 05:13:23;;;;;;;16.00;8.48;;;5.90;99.90;;;;;;8311538;28;20508;-80
2022/10/23 05:17:28;;;;;;;12.07;8.45;;;5.90;99.90;;;;;;8313079;28;20075;-79
2022/10/23 05:21:33;;;;;;;13.85;8.18;;;5.80;99.90;;;;;;8310858;28;20115;-79
2022/10/23 05:25:34;;;;;;;12.73;7.28;;;5.80;99.90;;;;;;8312377;28;20028;-78
2022/10/23 05:29:35;;;;;;;14.02;6.85;;;5.60;99.90;;;;;;8313183;28;20018;-78
2022/10/23 05:33:36;;;;;;;15.63;7.72;;;5.60;99.90;;;;;;8316236;28;20393;-79
2022/10/23 05:37:40;;;;;;;11.88;7.75;;;5.50;99.90;;;;;;8302466;28;20026;-79
2022/10/23 05:41:41;;;;;;;16.05;9.27;;;5.60;99.90;;;;;;8307190;28;20183;-78
2022/10/23 05:45:41;;;;;;;23.25;10.52;;;5.80;99.90;;;;;;8310512;28;20026;-79
2022/10/23 05:49:42;;;;;;;20.23;9.45;;;5.90;99.90;;;;;;8300041;28;20112;-78
2022/10/23 05:53:42;;;;;;;15.73;8.60;;;5.90;99.90;;;;;;8316078;28;20056;-79
2022/10/23 05:57:43;;;;;;;11.93;7.65;;;5.90;99.90;;;;;;8311289;28;20112;-79
2022/10/23 06:01:43;;;;;;;14.13;8.38;;;6.00;99.90;;;;;;8309641;28;20034;-79
2022/10/23 06:05:51;;;;;;;14.05;8.95;;;5.90;99.90;;;;;;8317124;28;20084;-79
2022/10/23 06:09:53;;;;;;;14.57;8.15;;;6.00;99.90;;;;;;8312645;28;20060;-79
2022/10/23 06:13:53;;;;;;;12.95;8.38;;;6.10;99.90;;;;;;8319918;28;20021;-79
2022/10/23 06:17:54;;;;;;;12.32;8.07;;;6.10;99.90;;;;;;8314400;28;20087;-77
2022/10/23 06:21:54;;;;;;;12.18;8.48;;;6.30;99.90;;;;;;8305056;28;20429;-79
2022/10/23 06:25:55;;;;;;;12.57;8.20;;;6.20;99.90;;;;;;8309948;28;20044;-80
2022/10/23 06:29:56;;;;;;;11.50;7.25;;;6.30;99.90;;;;;;8313711;28;20030;-79
2022/10/23 06:33:57;;;;;;;12.13;6.13;;;6.40;99.90;;;;;;8310426;28;20362;-80
2022/10/23 06:37:58;;;;;;;11.00;6.30;;;6.50;99.90;;;;;;8311796;28;20498;-80
2022/10/23 06:41:58;;;;;;;9.75;6.38;;;6.50;99.90;;;;;;8314104;28;20052;-79
2022/10/23 06:46:01;;;;;;;5.75;4.68;;;6.70;99.90;;;;;;8309224;28;20022;-80
2022/10/23 06:50:02;;;;;;;7.50;4.80;;;7.00;99.90;;;;;;8311326;28;20038;-79
2022/10/23 06:54:03;;;;;;;11.90;8.40;;;7.10;99.90;;;;;;8310162;28;20029;-79
2022/10/23 06:58:09;;;;;;;5.28;4.55;;;6.90;99.90;;;;;;8310971;28;20294;-79
2022/10/23 07:02:10;;;;;;;11.43;4.50;;;7.00;99.90;;;;;;8311270;28;20026;-79
2022/10/23 07:06:10;;;;;;;9.88;5.57;;;7.20;99.90;;;;;;8311566;28;20041;-79
2022/10/23 07:10:11;;;;;;;9.05;5.60;;;7.20;99.90;;;;;;8314976;28;20026;-79
2022/10/23 07:14:11;;;;;;;6.97;5.88;;;7.60;99.90;;;;;;8313643;28;20486;-79
2022/10/23 07:18:15;;;;;;;7.72;5.05;;;7.60;99.90;;;;;;8315053;28;20052;-79
2022/10/23 07:22:15;;;;;;;8.15;6.05;;;7.80;99.90;;;;;;8309846;28;20029;-79
2022/10/23 07:26:16;;;;;;;9.90;6.20;;;7.80;99.90;;;;;;8314906;28;20033;-79
2022/10/23 07:30:17;;;;;;;9.65;5.75;;;8.10;99.90;;;;;;8311594;28;20121;-79
2022/10/23 07:34:17;;;;;;;9.75;6.43;;;8.50;99.90;;;;;;8312914;28;20030;-80
2022/10/23 07:38:18;;;;;;;10.13;6.13;;;8.50;99.90;;;;;;8311153;28;20029;-80
2022/10/23 07:42:18;;;;;;;16.88;8.27;;;8.70;99.90;;;;;;8315534;28;20021;-79
2022/10/23 07:46:19;;;;;;;16.80;8.38;;;8.80;99.90;;;;;;8308371;28;20029;-84
2022/10/23 07:50:20;;;;;;;12.52;7.03;;;8.90;99.90;;;;;;8303870;28;20018;-79
2022/10/23 07:54:20;;;;;;;15.95;7.35;;;9.10;99.90;;;;;;8311515;28;20039;-79
2022/10/23 07:58:21;;;;;;;8.05;4.90;;;9.30;99.90;;;;;;8309179;28;20026;-79
2022/10/23 08:02:21;;;;;;;6.38;3.97;;;9.70;99.90;;;;;;8310516;28;20056;-79
2022/10/23 08:06:22;;;;;;;6.25;4.50;;;9.60;99.90;;;;;;8313929;28;20037;-79
2022/10/23 08:10:23;;;;;;;7.78;5.38;;;9.70;99.90;;;;;;8321875;28;20036;-79
2022/10/23 08:14:23;;;;;;;6.10;3.72;;;9.80;99.90;;;;;;8316081;28;20032;-79
2022/10/23 08:18:24;;;;;;;4.65;3.05;;;10.00;99.90;;;;;;8314103;28;20065;-79
2022/10/23 08:22:24;;;;;;;4.63;3.63;;;10.20;99.90;;;;;;8319608;28;20440;-80
2022/10/23 08:26:28;;;;;;;4.45;3.40;;;10.30;99.90;;;;;;8315339;28;20034;-79
2022/10/23 08:30:29;;;;;;;5.40;3.30;;;10.30;99.90;;;;;;8320208;28;20650;-79
2022/10/23 08:34:30;;;;;;;2.50;2.15;;;10.60;99.90;;;;;;8311047;28;20018;-79
2022/10/23 08:38:32;;;;;;;5.07;2.75;;;10.70;99.90;;;;;;8316438;28;20026;-79
2022/10/23 08:42:37;;;;;;;5.07;2.80;;;10.90;99.90;;;;;;8312526;28;20053;-79
2022/10/23 08:46:45;;;;;;;3.78;2.17;;;11.20;99.90;;;;;;8315895;28;20022;-79
2022/10/23 08:50:51;;;;;;;2.45;2.05;;;11.20;99.90;;;;;;8321369;28;20101;-80
2022/10/23 08:55:14;;;;;;;2.53;2.00;;;11.60;99.90;;;;;;8320641;28;20029;-81
2022/10/23 08:59:31;;;;;;;3.38;1.77;;;11.80;99.90;;;;;;8339074;28;20037;-81
2022/10/23 09:03:32;;;;;;;1.85;1.50;;;12.00;99.90;;;;;;8318223;28;20059;-79
2022/10/23 09:07:47;;;;;;;1.60;1.30;;;12.50;99.90;;;;;;8315944;28;20183;-80
2022/10/23 09:12:12;;;;;;;2.95;1.20;;;13.10;99.90;;;;;;8311006;28;20025;-80
2022/10/23 09:16:24;;;;;;;5.38;1.50;;;13.60;99.90;;;;;;8315649;28;20397;-79
2022/10/23 09:20:30;;;;;;;2.30;1.58;;;13.70;99.90;;;;;;8320684;28;20438;-79
2022/10/23 09:24:32;;;;;;;2.33;1.10;;;14.30;99.90;;;;;;8307784;28;20026;-79
2022/10/23 09:28:41;;;;;;;3.40;1.25;;;14.90;99.90;;;;;;8306714;28;20167;-79
2022/10/23 09:32:42;;;;;;;3.40;1.30;;;15.60;99.90;;;;;;8320965;28;20045;-80
2022/10/23 09:36:49;;;;;;;1.77;1.30;;;16.00;99.90;;;;;;8318792;28;20025;-80
2022/10/23 09:40:50;;;;;;;5.70;1.33;;;16.40;99.90;;;;;;8320117;28;20024;-84
2022/10/23 09:44:53;;;;;;;5.13;1.30;;;16.80;99.90;;;;;;8321449;28;20021;-85
2022/10/23 09:48:57;;;;;;;5.43;1.30;;;17.10;99.90;;;;;;8317608;28;20030;-84
2022/10/23 09:52:58;;;;;;;1.67;1.00;;;17.90;99.90;;;;;;8308944;28;20370;-86
2022/10/23 09:57:22;;;;;;;2.05;1.10;;;18.80;99.90;;;;;;8321978;28;20021;-85
2022/10/23 10:01:25;;;;;;;1.27;0.90;;;19.70;99.90;;;;;;8320010;28;20032;-84
2022/10/23 10:05:29;;;;;;;1.02;0.90;;;19.50;99.90;;;;;;8315338;28;20084;-85
2022/10/23 10:09:30;;;;;;;3.20;0.90;;;19.20;99.90;;;;;;8316813;28;20072;-84
2022/10/23 10:13:43;;;;;;;1.75;1.13;;;19.00;99.90;;;;;;8317522;28;20049;-85
2022/10/23 10:17:53;;;;;;;0.80;0.75;;;18.60;99.90;;;;;;8310323;28;20025;-85
2022/10/23 10:22:19;;;;;;;3.65;1.02;;;18.60;99.90;;;;;;8317840;28;20456;-85
2022/10/23 10:26:40;;;;;;;1.05;0.90;;;18.70;99.90;;;;;;8323467;28;20022;-85
2022/10/23 10:31:04;;;;;;;3.05;0.95;;;19.10;99.90;;;;;;8318231;28;20022;-85
2022/10/23 10:35:25;;;;;;;3.67;1.02;;;19.40;99.90;;;;;;8325426;28;20559;-85
2022/10/23 10:39:29;;;;;;;;;;;19.70;99.90;;;;;;8313821;28;20501;-85
2022/10/23 10:44:09;;;;;;;0.80;0.80;;;20.00;99.90;;;;;;8321545;28;19905;-85
2022/10/23 10:48:25;;;;;;;3.22;1.02;;;20.60;99.90;;;;;;8304978;28;20026;-85
2022/10/23 10:52:43;;;;;;;2.20;0.90;;;21.40;99.90;;;;;;8309315;28;20013;-84
2022/10/23 10:56:46;;;;;;;2.25;1.10;;;21.70;99.90;;;;;;8311888;28;20034;-85
2022/10/23 11:00:51;;;;;;;2.40;1.10;;;21.70;99.90;;;;;;8310449;28;20028;-85
2022/10/23 11:05:10;;;;;;;2.63;1.10;;;21.80;99.90;;;;;;8304300;28;20041;-85
2022/10/23 11:09:20;;;;;;;2.25;0.90;;;21.90;99.90;;;;;;8318892;28;20021;-84
2022/10/23 11:13:27;;;;;;;1.80;1.20;;;22.50;99.90;;;;;;8308232;28;20389;-85
2022/10/23 11:17:42;;;;;;;2.17;1.23;;;22.40;99.90;;;;;;8314660;28;20022;-85
2022/10/23 11:21:49;;;;;;;1.45;1.00;;;23.20;99.90;;;;;;8321647;28;20520;-85
2022/10/23 11:26:15;;;;;;;2.20;0.82;;;23.60;99.90;;;;;;8308617;28;20029;-85
2022/10/23 11:30:29;;;;;;;1.50;0.82;;;23.60;99.90;;;;;;8320452;28;20017;-85
2022/10/23 11:35:08;;;;;;;1.25;0.80;;;23.10;99.90;;;;;;8311557;28;20018;-84
2022/10/23 11:39:21;;;;;;;3.13;1.35;;;22.70;99.90;;;;;;8309042;28;20109;-83
2022/10/23 11:43:45;;;;;;;2.53;0.90;;;22.20;99.90;;;;;;8322478;28;20125;-86
2022/10/23 11:48:00;;;;;;;4.45;1.02;;;22.80;99.90;;;;;;8340996;28;20041;-85
2022/10/23 11:52:02;;;;;;;2.55;1.08;;;23.40;99.90;;;;;;8321592;28;20029;-85
2022/10/23 11:56:13;;;;;;;2.25;1.00;;;23.80;99.90;;;;;;8318796;28;20056;-85
2022/10/23 12:00:19;;;;;;;;;;;24.30;99.90;;;;;;8317178;28;20104;-84
2022/10/23 12:04:29;;;;;;;3.17;1.30;;;24.40;99.90;;;;;;8321536;28;19912;-85
2022/10/23 12:08:34;;;;;;;3.97;1.50;;;24.70;99.90;;;;;;8308243;28;20029;-84
2022/10/23 12:12:39;;;;;;;4.82;1.50;;;25.50;99.90;;;;;;8310664;28;20030;-84
2022/10/23 12:16:40;;;;;;;6.50;1.55;;;25.70;99.90;;;;;;8311024;28;20029;-84
2022/10/23 12:20:53;;;;;;;9.68;1.70;;;25.90;99.90;;;;;;8314441;28;20053;-85
2022/10/23 12:25:03;;;;;;;1.85;1.70;;;24.30;99.90;;;;;;8308622;28;20018;-84
2022/10/23 12:29:25;;;;;;;5.38;2.10;;;22.80;99.90;;;;;;8324784;28;20033;-85
2022/10/23 12:33:41;;;;;;;2.30;2.10;;;21.90;99.90;;;;;;8315726;28;20079;-83
2022/10/23 12:38:13;;;;;;;9.27;2.35;;;21.10;99.90;;;;;;8325814;28;20121;-84
2022/10/23 12:42:25;;;;;;;3.72;2.40;;;20.50;99.90;;;;;;8312561;28;20021;-84
2022/10/23 12:46:48;;;;;;;3.97;2.28;;;20.30;99.90;;;;;;8317150;28;20017;-84
2022/10/23 12:50:51;;;;;;;5.18;2.30;;;20.30;99.90;;;;;;8332400;28;20037;-84
2022/10/23 12:54:52;;;;;;;4.60;2.30;;;20.20;99.90;;;;;;8320080;28;21355;-85
2022/10/23 12:58:56;;;;;;;4.07;2.25;;;20.10;99.90;;;;;;8325809;28;20029;-84
2022/10/23 13:03:02;;;;;;;5.18;2.38;;;20.10;99.90;;;;;;8308958;28;20025;-84
2022/10/23 13:07:03;;;;;;;4.00;2.20;;;19.90;99.90;;;;;;8309397;28;20080;-84
2022/10/23 13:11:04;;;;;;;3.45;2.53;;;19.90;99.90;;;;;;8310799;28;20101;-83
2022/10/23 13:15:05;;;;;;;5.80;2.70;;;19.80;99.90;;;;;;8315633;28;20407;-83
2022/10/23 13:19:05;;;;;;;5.20;2.88;;;19.60;99.90;;;;;;8319758;28;20021;-84
2022/10/23 13:23:30;;;;;;;3.80;2.78;;;19.20;99.90;;;;;;8324346;28;20033;-83
2022/10/23 13:27:32;;;;;;;4.78;3.30;;;19.10;99.90;;;;;;8310680;28;20044;-84
2022/10/23 13:31:33;;;;;;;4.60;2.83;;;19.10;99.90;;;;;;8311040;28;20474;-84
2022/10/23 13:35:33;;;;;;;4.72;3.15;;;19.00;99.90;;;;;;8317369;28;20017;-82
2022/10/23 13:39:34;;;;;;;3.20;2.70;;;18.90;99.90;;;;;;8313107;28;20481;-84
2022/10/23 13:43:34;;;;;;;7.15;2.97;;;19.20;99.90;;;;;;8320600;28;20052;-84
2022/10/23 13:47:35;;;;;;;4.93;2.88;;;19.70;99.90;;;;;;8325457;28;20040;-84
2022/10/23 13:51:46;;;;;;;3.33;3.03;;;19.80;99.90;;;;;;8315966;28;20045;-84
2022/10/23 13:55:50;;;;;;;5.90;2.88;;;19.70;99.90;;;;;;8325526;28;20013;-84
2022/10/23 13:59:51;;;;;;;3.75;2.67;;;19.30;99.90;;;;;;8311988;28;20032;-84
2022/10/23 14:03:53;;;;;;;6.57;3.15;;;19.10;99.90;;;;;;8298700;28;20076;-84
2022/10/23 14:07:53;;;;;;;5.05;3.20;;;18.90;99.90;;;;;;8361101;22;20111;-91
2022/10/23 14:11:54;;;;;;;6.32;3.00;;;19.00;99.90;;;;;;8333438;28;20025;-92
2022/10/23 14:15:55;;;;;;;4.28;2.90;;;18.80;99.90;;;;;;8352543;28;20541;-91
2022/10/23 14:19:55;;;;;;;5.07;2.97;;;18.60;99.90;;;;;;8350892;28;20531;-91
2022/10/23 14:23:56;;;;;;;4.10;3.05;;;18.40;99.90;;;;;;8350726;28;20033;-91
2022/10/23 14:27:57;;;;;;;3.50;3.20;;;18.00;99.90;;;;;;8342427;28;20067;-91
2022/10/23 14:31:57;;;;;;;5.38;3.33;;;18.00;99.90;;;;;;8326144;28;20017;-91
2022/10/23 14:35:58;;;;;;;6.70;3.22;;;18.20;99.90;;;;;;8341897;28;20017;-91
2022/10/23 14:39:59;;;;;;;4.22;3.55;;;18.10;99.90;;;;;;8348034;28;20120;-91
2022/10/23 14:44:00;;;;;;;6.45;3.58;;;18.40;99.90;;;;;;8348979;28;20025;-90
2022/10/23 14:48:01;;;;;;;4.47;3.25;;;18.50;99.90;;;;;;8348360;28;20472;-90
2022/10/23 14:52:02;;;;;;;9.52;3.63;;;18.30;99.90;;;;;;8354494;28;20028;-90
2022/10/23 14:56:03;;;;;;;7.35;3.83;;;18.40;99.90;;;;;;8346834;28;20053;-91
2022/10/23 15:00:05;;;;;;;6.10;3.20;;;18.20;99.90;;;;;;8354645;28;20045;-90
2022/10/23 15:04:06;;;;;;;6.25;3.25;;;18.20;99.90;;;;;;8343201;28;20496;-88
2022/10/23 15:08:06;;;;;;;9.82;3.30;;;18.00;99.90;;;;;;8354242;28;20032;-88
2022/10/23 15:12:07;;;;;;;7.03;3.28;;;18.10;99.90;;;;;;8349737;28;20479;-90
2022/10/23 15:16:09;;;;;;;6.18;2.80;;;17.90;99.90;;;;;;8349191;28;20018;-87
2022/10/23 15:20:10;;;;;;;7.45;4.47;;;17.90;99.90;;;;;;8343050;28;20399;-89
2022/10/23 15:24:14;;;;;;;16.95;11.82;;;17.60;99.90;;;;;;8337671;28;20021;-87
2022/10/23 15:28:15;;;;;;;24.52;12.60;;;17.60;99.90;;;;;;8335919;28;20029;-87
2022/10/23 15:32:16;;;;;;;5.75;4.72;;;17.60;99.90;;;;;;8335349;28;20017;-89
2022/10/23 15:36:17;;;;;;;6.80;4.57;;;17.70;99.90;;;;;;8333829;28;20022;-88
2022/10/23 15:40:17;;;;;;;6.38;4.60;;;17.60;99.90;;;;;;8338012;28;20509;-89
2022/10/23 15:44:20;;;;;;;6.28;4.30;;;17.60;99.90;;;;;;8343334;28;20029;-88
2022/10/23 15:48:20;;;;;;;11.02;6.22;;;17.30;99.90;;;;;;8351179;28;20033;-87
2022/10/23 15:52:21;;;;;;;25.00;15.88;;;17.20;99.90;;;;;;8349078;28;20021;-87
2022/10/23 15:56:23;;;;;;;23.95;14.95;;;17.00;99.90;;;;;;8354603;28;20017;-87
2022/10/23 16:00:23;;;;;;;14.10;9.38;;;16.80;99.90;;;;;;8355062;28;20025;-89
2022/10/23 16:04:24;;;;;;;14.52;10.13;;;16.60;99.90;;;;;;8349529;28;20041;-88
2022/10/23 16:08:24;;;;;;;17.13;11.15;;;16.40;99.90;;;;;;8336502;28;20033;-89
2022/10/23 16:12:25;;;;;;;19.33;12.65;;;16.50;99.90;;;;;;8354864;28;20017;-90
2022/10/23 16:16:27;;;;;;;23.48;14.60;;;16.50;99.90;;;;;;8350544;28;20151;-88
2022/10/23 16:20:27;;;;;;;20.13;12.85;;;16.50;99.90;;;;;;8351200;28;20078;-90
2022/10/23 16:24:29;;;;;;;30.80;13.60;;;16.50;99.90;;;;;;8349337;28;20021;-90
2022/10/23 16:28:30;;;;;;;12.95;6.95;;;16.20;99.90;;;;;;8341313;28;20036;-84
2022/10/23 16:32:34;;;;;;;17.45;7.40;;;16.10;99.90;;;;;;8351829;28;20520;-85
2022/10/23 16:36:37;;;;;;;16.52;9.27;;;16.10;99.90;;;;;;8373683;28;20373;-84
2022/10/23 16:40:38;;;;;;;9.80;3.25;;;16.50;99.90;;;;;;8352617;28;20079;-84
2022/10/23 16:44:38;;;;;;;5.68;2.53;;;16.40;99.90;;;;;;8359067;28;20029;-84
2022/10/23 16:48:39;;;;;;;9.27;3.67;;;16.40;99.90;;;;;;8361641;28;20037;-84
2022/10/23 16:52:40;;;;;;;9.50;5.78;;;16.40;99.90;;;;;;8360425;28;20021;-84
2022/10/23 16:56:42;;;;;;;11.52;5.57;;;16.00;99.90;;;;;;8362910;28;20025;-84
2022/10/23 17:00:42;;;;;;;14.05;6.38;;;15.70;99.90;;;;;;8360070;28;20081;-84
2022/10/23 17:04:43;;;;;;;14.30;7.72;;;15.40;99.90;;;;;;8360387;28;20037;-84
2022/10/23 17:08:44;;;;;;;16.58;8.18;;;15.10;99.90;;;;;;8358648;28;20039;-85
2022/10/23 17:12:45;;;;;;;24.27;14.32;;;15.00;99.90;;;;;;8353402;28;20017;-83
2022/10/23 17:16:48;;;;;;;17.63;9.18;;;15.00;99.90;;;;;;8343956;28;20028;-84
2022/10/23 17:20:55;;;;;;;30.20;16.10;;;14.90;99.90;;;;;;8351656;28;20029;-84
2022/10/23 17:24:57;;;;;;;27.02;14.82;;;14.70;99.90;;;;;;8348945;28;20043;-83
2022/10/23 17:28:59;;;;;;;23.92;14.07;;;14.60;99.90;;;;;;8358155;28;20029;-84
2022/10/23 17:32:59;;;;;;;19.67;12.77;;;14.40;99.90;;;;;;8343525;28;20597;-84
2022/10/23 17:37:00;;;;;;;16.90;10.73;;;14.20;99.90;;;;;;8352205;28;20025;-83
2022/10/23 17:41:01;;;;;;;14.25;8.85;;;14.00;99.90;;;;;;8352551;28;20025;-84
2022/10/23 17:45:01;;;;;;;22.58;11.32;;;13.90;99.90;;;;;;8359048;28;20611;-85
2022/10/23 17:49:03;;;;;;;13.25;9.50;;;14.30;99.90;;;;;;8356902;28;20056;-83
2022/10/23 17:53:03;;;;;;;16.15;7.75;;;14.60;99.90;;;;;;8356488;28;20041;-84
2022/10/23 17:57:04;;;;;;;14.55;7.30;;;14.70;99.90;;;;;;8359068;28;20397;-84
2022/10/23 18:01:10;;;;;;;9.00;6.65;;;14.60;99.90;;;;;;8359314;28;20021;-84
2022/10/23 18:05:10;;;;;;;11.63;7.40;;;14.50;99.90;;;;;;8355272;28;20115;-84
2022/10/23 18:09:11;;;;;;;14.95;6.65;;;14.30;99.90;;;;;;8360127;28;20088;-84
2022/10/23 18:13:12;;;;;;;11.70;5.75;;;14.30;99.90;;;;;;8356964;28;20066;-84
2022/10/23 18:17:13;;;;;;;8.23;3.67;;;14.30;99.90;;;;;;8357504;28;20644;-85
2022/10/23 18:21:14;;;;;;;12.57;4.95;;;14.40;99.90;;;;;;8351515;28;20021;-84
2022/10/23 18:25:15;;;;;;;9.02;4.53;;;14.50;99.90;;;;;;8348676;28;20428;-84
2022/10/23 18:29:16;;;;;;;8.77;4.50;;;14.50;99.90;;;;;;8350111;28;20086;-84
2022/10/23 18:33:18;;;;;;;7.55;3.70;;;14.40;99.90;;;;;;8349591;28;20021;-84
2022/10/23 18:37:18;;;;;;;9.45;3.30;;;14.60;99.90;;;;;;8352840;28;20120;-84
2022/10/23 18:41:22;;;;;;;9.70;3.67;;;14.60;99.90;;;;;;8356490;28;20032;-84
2022/10/23 18:45:22;;;;;;;13.10;3.60;;;14.90;99.90;;;;;;8353227;28;20044;-85
2022/10/23 18:49:23;;;;;;;9.80;4.03;;;15.10;99.90;;;;;;8345180;28;20029;-85
2022/10/23 18:53:24;;;;;;;7.22;3.35;;;15.20;99.90;;;;;;8350732;28;20118;-84
2022/10/23 18:57:25;;;;;;;6.90;3.47;;;15.20;99.90;;;;;;8346850;28;20029;-84
2022/10/23 19:01:26;;;;;;;8.85;4.10;;;15.00;99.90;;;;;;8354499;28;20024;-83
2022/10/23 19:05:27;;;;;;;20.77;10.20;;;14.80;99.90;;;;;;8351122;28;20122;-84
2022/10/23 19:09:27;;;;;;;13.18;7.70;;;14.80;99.90;;;;;;8347497;28;20032;-85
2022/10/23 19:13:28;;;;;;;10.90;5.85;;;15.00;99.90;;;;;;8351386;28;20025;-85
2022/10/23 19:17:31;;;;;;;11.55;4.90;;;15.00;99.90;;;;;;8347047;28;20401;-84
2022/10/23 19:21:35;;;;;;;9.98;4.82;;;14.90;99.90;;;;;;8344770;28;20112;-84
2022/10/23 19:25:36;;;;;;;5.70;3.92;;;15.20;99.90;;;;;;8341990;28;20021;-84
2022/10/23 19:29:41;;;;;;;12.88;4.38;;;15.10;99.90;;;;;;8348353;28;20057;-83
2022/10/23 19:33:42;;;;;;;4.95;2.92;;;14.90;99.90;;;;;;8340838;28;20031;-85
2022/10/23 19:37:42;;;;;;;8.70;3.75;;;15.20;99.90;;;;;;8348410;28;20021;-82
2022/10/23 19:41:43;;;;;;;5.47;3.60;;;15.20;99.90;;;;;;8354306;28;20714;-83
2022/10/23 19:45:44;;;;;;;8.27;3.97;;;14.90;99.90;;;;;;8362046;28;20381;-83
2022/10/23 19:49:44;;;;;;;9.77;3.42;;;15.00;99.90;;;;;;8356850;28;20025;-83
2022/10/23 19:53:45;;;;;;;8.85;3.38;;;14.70;99.90;;;;;;8352620;28;20110;-83
2022/10/23 19:57:45;;;;;;;7.32;3.72;;;15.10;99.90;;;;;;8358156;28;20025;-83
2022/10/23 20:01:46;;;;;;;9.15;3.83;;;14.90;99.90;;;;;;8360987;28;20025;-83
2022/10/23 20:05:46;;;;;;;9.70;4.50;;;14.60;99.90;;;;;;8362730;28;20029;-84
2022/10/23 20:09:47;;;;;;;10.00;3.88;;;14.50;99.90;;;;;;8352939;28;20032;-83
2022/10/23 20:13:48;;;;;;;15.60;4.25;;;14.50;99.90;;;;;;8346651;28;20041;-84
2022/10/23 20:17:49;;;;;;;11.43;3.50;;;14.50;99.90;;;;;;8366194;28;20048;-84
2022/10/23 20:21:50;;;;;;;19.95;3.10;;;14.50;99.90;;;;;;8351364;28;20027;-83
2022/10/23 20:25:50;;;;;;;6.80;3.03;;;14.80;99.90;;;;;;8341891;28;20546;-82
2022/10/23 20:29:51;;;;;;;10.93;3.20;;;15.00;99.90;;;;;;8345200;28;20075;-83
2022/10/23 20:33:52;;;;;;;9.73;2.72;;;15.00;99.90;;;;;;8350289;28;20040;-83
2022/10/23 20:37:53;;;;;;;9.10;2.65;;;14.60;99.90;;;;;;8347369;28;20037;-84
2022/10/23 20:41:54;;;;;;;13.00;3.70;;;14.30;99.90;;;;;;8340932;28;20142;-84
2022/10/23 20:45:55;;;;;;;11.77;3.22;;;14.20;99.90;;;;;;8354593;28;20025;-83
2022/10/23 20:49:55;;;;;;;16.52;3.60;;;14.10;99.90;;;;;;8365484;28;20617;-83
2022/10/23 20:53:56;;;;;;;12.20;2.70;;;13.90;99.90;;;;;;8361501;28;20067;-84
2022/10/23 20:57:56;;;;;;;14.15;2.80;;;14.30;99.90;;;;;;8362595;28;20074;-83
2022/10/23 21:01:57;;;;;;;6.22;2.47;;;14.60;99.90;;;;;;8357304;28;20071;-84
2022/10/23 21:06:07;;;;;;;10.27;2.58;;;14.90;99.90;;;;;;8345300;28;20021;-82
2022/10/23 21:10:08;;;;;;;11.15;2.67;;;14.70;99.90;;;;;;8345224;28;20449;-83
2022/10/23 21:14:08;;;;;;;13.77;3.03;;;14.60;99.90;;;;;;8356351;28;20025;-83
2022/10/23 21:18:13;;;;;;;10.63;3.13;;;14.60;99.90;;;;;;8355986;28;20021;-84